Lane, Nevada
Current Conditions -  °F | °C
As of 1:53 AM on Monday 22 Dec 2014 (Local Time) from KELY Reporting Station
Overcast Overcast  
Wind Chill: 44°   Ceiling: 2700
Heat Index: 44°   Visibility: 10mi
Dew Point: 37°   Wind: 3mph
Humidity: 76%   Direction: 130°SE
Pressure: 30.16"   Gusts: NA
Location:  39.5572°N, 115.033°W
Report Text: KELY 220953Z AUTO 13003KT 10SM OVC027 07/03 A3016 RMK AO2 SLP171 T00670028
Loading
Personal Weather Stations






























Interactive Weather Map New forecast layout! Learn more

10-Day Weather Forecast

Advertisements
Track Severe Weather on mobile